Kholm, Russia
Current Conditions -  °F | °C
As of 9:30 AM on Wednesday 28 Jan 2015 (Local Time) from ULOO Reporting Station
Haze Haze  
Wind Chill: 19°   Ceiling: Unl
Heat Index: 25°   Visibility: 2.8mi
Dew Point: 25°   Wind: 4mph
Humidity: 100%   Direction: 190°S
Pressure: 29.74"   Gusts: NA
Location:  57.15°N, 31.18°E
Report Text: ULOO 280630Z 19002MPS 4600 BR NSC M04/M04 Q1007 19090055 TEMPO1200 RMK QFE751
Loading
Personal Weather Stations






























Interactive Weather Map New forecast layout! Learn more

10-Day Weather Forecast

Advertisements
Track Severe Weather on mobile